createdAt,value
2022-09-28T00:01:24.393Z,8.88
2022-09-28T00:03:54.499Z,8.92
2022-09-28T00:06:24.507Z,8.98
2022-09-28T00:08:53.132Z,8.98
2022-09-28T00:11:24.376Z,8.99
2022-09-28T00:13:53.801Z,9.02
2022-09-28T00:16:24.058Z,9.06
2022-09-28T00:18:52.386Z,9.11
2022-09-28T00:21:22.698Z,9.18
2022-09-28T00:24:11.079Z,9.19
2022-09-28T00:26:42.633Z,9.23
2022-09-28T00:29:17.831Z,9.26
2022-09-28T00:31:46.121Z,9.25
2022-09-28T00:34:14.374Z,9.30
2022-09-28T00:36:45.568Z,9.29
2022-09-28T00:39:15.505Z,9.30
2022-09-28T00:41:45.794Z,9.27
2022-09-28T00:44:43.483Z,9.29
2022-09-28T00:47:20.873Z,9.26
2022-09-28T00:49:54.240Z,9.27
2022-09-28T00:52:27.948Z,9.29
2022-09-28T00:54:58.286Z,9.34
2022-09-28T00:57:27.876Z,9.36
2022-09-28T00:59:55.948Z,9.35
2022-09-28T01:02:23.795Z,9.35
2022-09-28T01:04:52.845Z,9.37
2022-09-28T01:07:22.360Z,9.41
2022-09-28T01:09:51.502Z,9.40
2022-09-28T01:12:19.272Z,9.42
2022-09-28T01:14:50.148Z,9.41
2022-09-28T01:17:24.542Z,9.39
2022-09-28T01:20:28.528Z,9.41
2022-09-28T01:23:33.144Z,9.41
2022-09-28T01:26:27.487Z,9.41
2022-09-28T01:29:03.603Z,9.41
2022-09-28T01:31:35.981Z,9.37
2022-09-28T01:34:10.091Z,9.37
2022-09-28T01:36:43.662Z,9.37
2022-09-28T01:39:16.615Z,9.38
2022-09-28T01:41:51.288Z,9.38
2022-09-28T01:44:22.238Z,9.39
2022-09-28T01:46:51.672Z,9.37
2022-09-28T01:49:23.660Z,9.38
2022-09-28T01:51:56.410Z,9.34
2022-09-28T01:54:30.043Z,9.35
2022-09-28T01:57:05.054Z,9.32
2022-09-28T01:59:36.347Z,9.28
2022-09-28T02:02:08.140Z,9.25
2022-09-28T02:04:41.851Z,9.25
2022-09-28T02:07:15.591Z,9.22
2022-09-28T02:09:47.095Z,9.19
2022-09-28T02:12:21.219Z,9.19
2022-09-28T02:14:50.884Z,9.17
2022-09-28T02:17:19.696Z,9.18
2022-09-28T02:19:48.653Z,9.16
2022-09-28T02:22:26.241Z,9.13
2022-09-28T02:24:57.571Z,9.07
2022-09-28T02:27:34.956Z,9.09
2022-09-28T02:30:03.108Z,9.07
2022-09-28T02:32:34.053Z,9.04
2022-09-28T02:35:02.408Z,9.04
2022-09-28T02:37:30.153Z,9.04
2022-09-28T02:39:57.881Z,9.05
2022-09-28T02:42:29.354Z,9.05
2022-09-28T02:45:14.860Z,9.06
2022-09-28T02:47:57.575Z,9.07
2022-09-28T02:50:37.387Z,9.06
2022-09-28T02:53:23.238Z,9.09
2022-09-28T02:56:05.424Z,9.09
2022-09-28T02:58:47.821Z,9.12
2022-09-28T03:01:24.325Z,9.22
2022-09-28T03:03:58.843Z,9.19
2022-09-28T03:06:34.636Z,9.20
2022-09-28T03:09:06.786Z,9.25
2022-09-28T03:11:41.635Z,9.26
2022-09-28T03:14:10.258Z,9.32
2022-09-28T03:16:47.991Z,9.35
2022-09-28T03:19:18.462Z,9.39
2022-09-28T03:21:46.368Z,9.42
2022-09-28T03:24:14.151Z,9.43
2022-09-28T03:26:41.904Z,9.45
2022-09-28T03:29:11.044Z,9.47
2022-09-28T03:31:39.349Z,9.45
2022-09-28T03:34:08.777Z,9.52
2022-09-28T03:36:36.658Z,9.52
2022-09-28T03:39:04.668Z,9.52
2022-09-28T03:41:32.424Z,9.55
2022-09-28T03:44:00.139Z,9.53
2022-09-28T03:46:29.892Z,9.56
2022-09-28T03:49:02.909Z,9.55
2022-09-28T03:51:32.073Z,9.52
2022-09-28T03:53:59.861Z,9.50
2022-09-28T03:56:27.754Z,9.52
2022-09-28T03:58:55.717Z,9.54
2022-09-28T04:01:23.512Z,9.54
2022-09-28T04:03:55.062Z,9.51
2022-09-28T04:06:23.436Z,9.51
2022-09-28T04:08:52.847Z,9.50
2022-09-28T04:11:20.623Z,9.51
2022-09-28T04:13:49.469Z,9.52
2022-09-28T04:16:17.915Z,9.53
2022-09-28T04:18:52.710Z,9.55
2022-09-28T04:21:39.915Z,9.51
2022-09-28T04:24:15.253Z,9.54
2022-09-28T04:26:43.044Z,9.54
2022-09-28T04:29:17.774Z,9.50
2022-09-28T04:32:06.879Z,9.50
2022-09-28T04:34:40.767Z,9.48
2022-09-28T04:37:12.295Z,9.48
2022-09-28T04:39:46.163Z,9.48
2022-09-28T04:42:18.066Z,9.45
2022-09-28T04:44:46.111Z,9.46
2022-09-28T04:47:14.092Z,9.44
2022-09-28T04:50:09.061Z,9.40
2022-09-28T04:52:56.898Z,9.45
2022-09-28T04:55:26.038Z,9.40
2022-09-28T04:57:54.724Z,9.41
2022-09-28T05:00:22.524Z,9.39
2022-09-28T05:03:05.890Z,9.37
2022-09-28T05:05:52.310Z,9.35
2022-09-28T05:08:37.409Z,9.36
2022-09-28T05:11:09.948Z,9.34
2022-09-28T05:13:41.764Z,9.33
2022-09-28T05:16:10.114Z,9.33
2022-09-28T05:18:56.878Z,9.35
2022-09-28T05:21:26.463Z,9.33
2022-09-28T05:23:56.155Z,9.28
2022-09-28T05:26:25.970Z,9.30
2022-09-28T05:28:53.733Z,9.32
2022-09-28T05:31:39.954Z,9.34
2022-09-28T05:34:26.056Z,9.32
2022-09-28T05:36:54.899Z,9.37
2022-09-28T05:39:22.646Z,9.38
2022-09-28T05:41:51.798Z,9.35
2022-09-28T05:44:19.823Z,9.41
2022-09-28T05:46:48.758Z,9.38
2022-09-28T05:49:17.971Z,9.38
2022-09-28T05:51:45.757Z,9.41
2022-09-28T05:54:14.241Z,9.40
2022-09-28T05:56:45.825Z,9.41
2022-09-28T05:59:15.543Z,9.44
2022-09-28T06:01:43.512Z,9.45
2022-09-28T06:04:12.361Z,9.49
2022-09-28T06:06:43.051Z,9.52
2022-09-28T06:09:11.248Z,9.49
2022-09-28T06:11:59.290Z,9.55
2022-09-28T06:14:41.563Z,9.52
2022-09-28T06:17:09.347Z,9.56
2022-09-28T06:19:37.231Z,9.59
2022-09-28T06:22:23.542Z,9.61
2022-09-28T06:25:08.248Z,9.64
2022-09-28T06:27:36.007Z,9.65
2022-09-28T06:30:05.684Z,9.68
2022-09-28T06:32:33.446Z,9.69
2022-09-28T06:35:01.342Z,9.73
2022-09-28T06:37:29.195Z,9.68
2022-09-28T06:39:57.808Z,9.74
2022-09-28T06:42:25.824Z,9.75
2022-09-28T06:45:21.820Z,9.80
2022-09-28T06:48:09.298Z,9.79
2022-09-28T06:50:41.898Z,9.81
2022-09-28T06:53:29.231Z,9.82
2022-09-28T06:56:03.755Z,9.87
2022-09-28T06:58:32.290Z,9.88
2022-09-28T07:01:02.558Z,9.92
2022-09-28T07:03:41.968Z,9.95
2022-09-28T07:06:42.538Z,9.95
2022-09-28T07:09:33.452Z,9.95
2022-09-28T07:12:13.541Z,9.93
2022-09-28T07:15:01.841Z,9.92
2022-09-28T07:17:31.759Z,9.92
2022-09-28T07:20:14.827Z,9.88
2022-09-28T07:22:45.178Z,9.87
2022-09-28T07:25:18.846Z,9.87
2022-09-28T07:27:57.428Z,9.88
2022-09-28T07:30:51.310Z,9.83
2022-09-28T07:33:41.082Z,9.76
2022-09-28T07:36:21.449Z,9.68
2022-09-28T07:38:54.729Z,9.64
2022-09-28T07:41:32.493Z,9.51
2022-09-28T07:44:06.553Z,9.53
2022-09-28T07:46:37.115Z,9.52
2022-09-28T07:49:12.972Z,9.53
2022-09-28T07:52:16.636Z,9.66
2022-09-28T07:55:07.237Z,9.63
2022-09-28T07:58:08.035Z,9.68
2022-09-28T08:00:49.792Z,9.71
2022-09-28T08:03:20.050Z,9.75
2022-09-28T08:05:49.794Z,9.63
2022-09-28T08:08:18.470Z,9.68
2022-09-28T08:10:47.513Z,9.66
2022-09-28T08:13:38.955Z,9.64
2022-09-28T08:16:40.378Z,9.73
2022-09-28T08:19:14.975Z,9.69
2022-09-28T08:21:45.805Z,9.73
2022-09-28T08:24:15.394Z,9.70
2022-09-28T08:26:44.105Z,9.65
2022-09-28T08:29:14.470Z,9.71
2022-09-28T08:32:00.792Z,9.78
2022-09-28T08:34:35.951Z,9.74
2022-09-28T08:37:33.004Z,9.72
2022-09-28T08:40:48.319Z,9.81
2022-09-28T08:43:54.248Z,10.06
2022-09-28T08:46:35.299Z,10.19
2022-09-28T08:49:33.197Z,10.27
2022-09-28T08:52:31.566Z,10.31
2022-09-28T08:55:15.711Z,10.47
2022-09-28T08:57:49.426Z,10.44
2022-09-28T09:00:23.792Z,10.45
2022-09-28T09:02:52.343Z,10.53
2022-09-28T09:05:35.893Z,10.60
2022-09-28T09:08:15.232Z,10.69
2022-09-28T09:10:54.864Z,10.75
2022-09-28T09:13:55.596Z,10.90
2022-09-28T09:16:34.008Z,10.93
2022-09-28T09:19:41.876Z,11.05
2022-09-28T09:22:29.012Z,11.28
2022-09-28T09:25:04.535Z,11.43
2022-09-28T09:27:46.348Z,11.63
2022-09-28T09:30:19.859Z,11.67
2022-09-28T09:33:15.815Z,11.81
2022-09-28T09:36:16.546Z,11.71
2022-09-28T09:39:19.596Z,11.65
2022-09-28T09:42:19.141Z,11.65
2022-09-28T09:45:28.711Z,11.68
2022-09-28T09:48:16.331Z,11.65
2022-09-28T09:50:49.566Z,11.61
2022-09-28T09:53:25.221Z,11.52
2022-09-28T09:55:57.397Z,11.46
2022-09-28T09:58:40.552Z,11.64
2022-09-28T10:01:33.407Z,11.86
2022-09-28T10:04:23.210Z,11.97
2022-09-28T10:06:57.437Z,12.00
2022-09-28T10:09:28.906Z,12.06
2022-09-28T10:12:05.384Z,12.06
2022-09-28T10:14:33.194Z,12.10
2022-09-28T10:17:06.348Z,11.95
2022-09-28T10:19:52.747Z,11.99
2022-09-28T10:23:02.046Z,11.90
2022-09-28T10:25:33.202Z,11.62
2022-09-28T10:28:02.435Z,11.48
2022-09-28T10:30:36.143Z,11.43
2022-09-28T10:33:05.346Z,11.39
2022-09-28T10:35:43.236Z,11.31
2022-09-28T10:38:18.446Z,11.33
2022-09-28T10:41:13.412Z,11.34
2022-09-28T10:44:05.970Z,11.31
2022-09-28T10:46:58.208Z,11.30
2022-09-28T10:49:28.472Z,11.36
2022-09-28T10:51:59.075Z,11.39
2022-09-28T10:54:32.992Z,11.44
2022-09-28T10:57:01.821Z,11.60
2022-09-28T10:59:40.431Z,11.56
2022-09-28T11:02:43.764Z,11.59
2022-09-28T11:05:25.739Z,11.59
2022-09-28T11:07:57.237Z,11.55
2022-09-28T11:10:33.538Z,11.57
2022-09-28T11:13:19.312Z,11.57
2022-09-28T11:15:56.893Z,11.56
2022-09-28T11:18:34.359Z,11.62
2022-09-28T11:21:14.943Z,11.67
2022-09-28T11:24:05.798Z,11.61
2022-09-28T11:26:38.805Z,11.57
2022-09-28T11:29:08.403Z,11.62
2022-09-28T11:31:48.103Z,11.56
2022-09-28T11:34:31.461Z,11.53
2022-09-28T11:37:41.360Z,11.58
2022-09-28T11:40:24.565Z,11.49
2022-09-28T11:43:01.618Z,11.47
2022-09-28T11:45:43.630Z,11.55
2022-09-28T11:48:16.034Z,11.48
2022-09-28T11:50:50.553Z,11.37
2022-09-28T11:53:26.739Z,11.35
2022-09-28T11:56:09.073Z,11.46
2022-09-28T11:58:42.680Z,11.43
2022-09-28T12:01:22.547Z,11.43
2022-09-28T12:04:27.528Z,11.53
2022-09-28T12:07:01.042Z,11.62
2022-09-28T12:09:37.021Z,11.69
2022-09-28T12:12:22.445Z,11.71
2022-09-28T12:14:54.123Z,11.71
2022-09-28T12:17:26.273Z,11.69
2022-09-28T12:19:59.099Z,11.70
2022-09-28T12:22:33.298Z,11.65
2022-09-28T12:25:04.919Z,11.61
2022-09-28T12:27:41.432Z,11.49
2022-09-28T12:30:16.323Z,11.44
2022-09-28T12:32:50.471Z,11.48
2022-09-28T12:35:28.566Z,11.38
2022-09-28T12:38:17.805Z,11.39
2022-09-28T12:40:54.320Z,11.44
2022-09-28T12:43:40.563Z,11.38
2022-09-28T12:46:29.760Z,11.29
2022-09-28T12:52:25.065Z,11.36
2022-09-28T12:55:18.280Z,11.35
2022-09-28T12:57:59.574Z,11.39
2022-09-28T13:00:36.068Z,11.39
2022-09-28T13:03:21.299Z,11.47
2022-09-28T13:06:16.525Z,11.45
2022-09-28T13:08:57.576Z,11.51
2022-09-28T13:11:34.017Z,11.49
2022-09-28T13:14:23.890Z,11.43
2022-09-28T13:17:01.252Z,11.47
2022-09-28T13:19:38.531Z,11.35
2022-09-28T13:22:26.949Z,11.46
2022-09-28T13:24:57.335Z,11.45
2022-09-28T13:27:30.616Z,11.42
2022-09-28T13:30:03.611Z,11.44
2022-09-28T13:32:33.353Z,11.41
2022-09-28T13:35:02.561Z,11.47
2022-09-28T13:37:30.530Z,11.50
2022-09-28T13:39:59.410Z,11.54
2022-09-28T13:42:54.375Z,11.59
2022-09-28T13:45:34.863Z,11.73
2022-09-28T13:48:14.137Z,11.59
2022-09-28T13:51:01.617Z,11.59
2022-09-28T13:53:40.798Z,11.61
2022-09-28T13:56:22.649Z,11.55
2022-09-28T13:58:55.426Z,11.50
2022-09-28T14:01:30.692Z,11.49
2022-09-28T14:04:15.122Z,11.50
2022-09-28T14:06:48.730Z,11.50
2022-09-28T14:09:42.203Z,11.47
2022-09-28T14:12:44.533Z,11.45
2022-09-28T14:15:41.829Z,11.44
2022-09-28T14:18:24.464Z,11.38
2022-09-28T14:21:05.233Z,11.48
2022-09-28T14:23:59.072Z,11.44
2022-09-28T14:27:00.592Z,11.27
2022-09-28T14:29:30.057Z,11.21
2022-09-28T14:31:59.493Z,11.18
2022-09-28T14:34:34.161Z,11.11
2022-09-28T14:37:38.605Z,11.03
2022-09-28T14:40:34.716Z,10.88
2022-09-28T14:43:24.645Z,10.71
2022-09-28T14:46:14.356Z,10.56
2022-09-28T14:48:48.906Z,10.48
2022-09-28T14:51:58.534Z,10.39
2022-09-28T14:54:28.520Z,10.39
2022-09-28T14:57:08.197Z,10.46
2022-09-28T14:59:43.390Z,10.45
2022-09-28T15:02:20.120Z,10.30
2022-09-28T15:04:51.531Z,10.20
2022-09-28T15:07:22.934Z,10.27
2022-09-28T15:09:52.606Z,10.17
2022-09-28T15:12:23.330Z,10.12
2022-09-28T15:14:55.373Z,10.12
2022-09-28T15:17:25.612Z,10.10
2022-09-28T15:20:08.803Z,9.88
2022-09-28T15:22:39.073Z,9.91
2022-09-28T15:25:14.289Z,9.92
2022-09-28T15:27:48.375Z,9.96
2022-09-28T15:30:28.966Z,9.94
2022-09-28T15:33:18.255Z,9.85
2022-09-28T15:35:49.215Z,9.69
2022-09-28T15:38:18.627Z,9.69
2022-09-28T15:40:47.764Z,9.53
2022-09-28T15:43:26.980Z,9.49
2022-09-28T15:46:07.334Z,9.44
2022-09-28T15:48:48.147Z,9.37
2022-09-28T15:51:15.887Z,9.33
2022-09-28T15:53:59.804Z,9.34
2022-09-28T15:56:27.966Z,9.24
2022-09-28T15:59:19.879Z,9.25
2022-09-28T16:01:48.761Z,9.25
2022-09-28T16:04:37.426Z,9.31
2022-09-28T16:07:24.309Z,9.34
2022-09-28T16:09:59.536Z,9.31
2022-09-28T16:12:34.750Z,9.28
2022-09-28T16:15:05.927Z,9.29
2022-09-28T16:17:36.391Z,9.35
2022-09-28T16:20:18.528Z,9.33
2022-09-28T16:22:46.568Z,9.32
2022-09-28T16:25:22.971Z,9.35
2022-09-28T16:27:51.762Z,9.30
2022-09-28T16:30:24.196Z,9.35
2022-09-28T16:32:54.066Z,9.36
2022-09-28T16:35:31.249Z,9.34
2022-09-28T16:38:05.645Z,9.28
2022-09-28T16:40:34.992Z,9.22
2022-09-28T16:43:06.636Z,9.17
2022-09-28T16:45:35.139Z,9.13
2022-09-28T16:48:03.728Z,9.12
2022-09-28T16:50:31.419Z,9.11
2022-09-28T16:53:29.853Z,9.00
2022-09-28T16:55:59.622Z,8.98
2022-09-28T16:58:27.764Z,8.97
2022-09-28T17:00:55.571Z,8.97
2022-09-28T17:03:24.398Z,8.97
2022-09-28T17:05:55.045Z,9.02
2022-09-28T17:08:25.571Z,8.99
2022-09-28T17:11:15.920Z,8.98
2022-09-28T17:13:45.155Z,8.95
2022-09-28T17:16:15.274Z,8.94
2022-09-28T17:18:43.251Z,8.93
2022-09-28T17:21:15.678Z,8.93
2022-09-28T17:23:43.519Z,8.92
2022-09-28T17:26:18.693Z,8.92
2022-09-28T17:28:47.836Z,8.93
2022-09-28T17:31:16.923Z,8.93
2022-09-28T17:33:45.317Z,8.93
2022-09-28T17:36:15.864Z,8.91
2022-09-28T17:38:44.016Z,8.90
2022-09-28T17:41:14.800Z,8.88
2022-09-28T17:43:45.197Z,8.85
2022-09-28T17:46:26.725Z,8.84
2022-09-28T17:48:54.923Z,8.88
2022-09-28T17:51:23.678Z,8.84
2022-09-28T17:53:51.393Z,8.89
2022-09-28T17:56:19.108Z,8.83
2022-09-28T17:58:47.775Z,8.80
2022-09-28T18:01:15.530Z,8.83
2022-09-28T18:03:44.675Z,8.84
2022-09-28T18:06:15.162Z,8.79
2022-09-28T18:08:43.781Z,8.74
2022-09-28T18:11:12.169Z,8.74
2022-09-28T18:13:40.542Z,8.71
2022-09-28T18:16:09.303Z,8.69
2022-09-28T18:18:39.719Z,8.73
2022-09-28T18:21:09.817Z,8.69
2022-09-28T18:23:37.813Z,8.71
2022-09-28T18:26:06.249Z,8.68
2022-09-28T18:28:34.026Z,8.70
2022-09-28T18:31:08.218Z,8.76
2022-09-28T18:33:36.579Z,8.73
2022-09-28T18:36:05.675Z,8.70
2022-09-28T18:38:36.359Z,8.69
2022-09-28T18:41:10.546Z,8.67
2022-09-28T18:43:38.645Z,8.66
2022-09-28T18:46:07.860Z,8.66
2022-09-28T18:48:35.876Z,8.63
2022-09-28T18:51:03.729Z,8.61
2022-09-28T18:53:34.678Z,8.59
2022-09-28T18:56:07.065Z,8.61
2022-09-28T18:58:35.789Z,8.59
2022-09-28T19:01:28.250Z,8.59
2022-09-28T19:03:55.879Z,8.57
2022-09-28T19:06:23.555Z,8.57
2022-09-28T19:08:55.861Z,8.57
2022-09-28T19:11:24.421Z,8.59
2022-09-28T19:13:53.830Z,8.57
2022-09-28T19:16:23.997Z,8.57
2022-09-28T19:18:53.558Z,8.58
2022-09-28T19:21:22.119Z,8.58
2022-09-28T19:23:50.676Z,8.62
2022-09-28T19:26:22.038Z,8.61
2022-09-28T19:28:50.184Z,8.66
2022-09-28T19:31:18.204Z,8.62
2022-09-28T19:33:46.480Z,8.64
2022-09-28T19:36:16.776Z,8.63
2022-09-28T19:38:44.525Z,8.66
2022-09-28T19:41:13.982Z,8.67
2022-09-28T19:43:43.658Z,8.64
2022-09-28T19:46:12.648Z,8.64
2022-09-28T19:48:42.261Z,8.65
2022-09-28T19:51:10.259Z,8.59
2022-09-28T19:53:37.985Z,8.59
2022-09-28T19:56:06.303Z,8.50
2022-09-28T19:58:36.567Z,8.53
2022-09-28T20:01:08.171Z,8.51
2022-09-28T20:03:36.246Z,8.48
2022-09-28T20:06:03.994Z,8.48
2022-09-28T20:08:32.367Z,8.46
2022-09-28T20:11:00.903Z,8.44
2022-09-28T20:13:31.805Z,8.44
2022-09-28T20:16:04.279Z,8.45
2022-09-28T20:18:35.901Z,8.43
2022-09-28T20:21:04.601Z,8.43
2022-09-28T20:23:32.405Z,8.42
2022-09-28T20:26:00.220Z,8.41
2022-09-28T20:28:28.267Z,8.40
2022-09-28T20:30:57.244Z,8.38
2022-09-28T20:33:28.760Z,8.38
2022-09-28T20:35:59.331Z,8.38
2022-09-28T20:38:27.049Z,8.39
2022-09-28T20:40:54.749Z,8.40
2022-09-28T20:43:22.473Z,8.38
2022-09-28T20:45:50.802Z,8.39
2022-09-28T20:48:18.884Z,8.37
2022-09-28T20:50:46.584Z,8.35
2022-09-28T20:53:15.634Z,8.35
2022-09-28T20:55:44.186Z,8.33
2022-09-28T20:58:11.877Z,8.31
2022-09-28T21:00:39.581Z,8.26
2022-09-28T21:03:07.316Z,8.26
2022-09-28T21:05:36.719Z,8.19
2022-09-28T21:08:04.404Z,8.16
2022-09-28T21:10:33.586Z,8.16
2022-09-28T21:13:01.299Z,8.16
2022-09-28T21:15:29.015Z,8.16
2022-09-28T21:17:56.708Z,8.16
2022-09-28T21:20:24.424Z,8.17
2022-09-28T21:22:52.108Z,8.17
2022-09-28T21:25:19.847Z,8.22
2022-09-28T21:27:49.224Z,8.22
2022-09-28T21:30:19.881Z,8.23
2022-09-28T21:32:50.127Z,8.22
2022-09-28T21:35:17.778Z,8.23
2022-09-28T21:37:46.211Z,8.26
2022-09-28T21:40:13.967Z,8.25
2022-09-28T21:42:42.838Z,8.26
2022-09-28T21:45:11.930Z,8.25
2022-09-28T21:47:43.486Z,8.23
2022-09-28T21:50:11.176Z,8.23
2022-09-28T21:52:38.880Z,8.23
2022-09-28T21:55:07.646Z,8.23
2022-09-28T21:57:35.383Z,8.22
2022-09-28T22:00:03.505Z,8.22
2022-09-28T22:02:36.396Z,8.19
2022-09-28T22:05:04.216Z,8.16
2022-09-28T22:07:32.012Z,8.12
2022-09-28T22:09:59.743Z,8.08
2022-09-28T22:12:29.564Z,8.06
2022-09-28T22:14:57.259Z,8.08
2022-09-28T22:17:25.233Z,8.06
2022-09-28T22:19:54.330Z,8.05
2022-09-28T22:22:24.387Z,8.08
2022-09-28T22:24:56.045Z,8.12
2022-09-28T22:27:24.003Z,8.08
2022-09-28T22:29:52.059Z,8.05
2022-09-28T22:32:19.784Z,8.04
2022-09-28T22:34:47.489Z,8.00
2022-09-28T22:37:16.603Z,7.98
2022-09-28T22:39:44.288Z,7.95
2022-09-28T22:42:11.988Z,7.94
2022-09-28T22:44:40.492Z,7.95
2022-09-28T22:47:08.163Z,7.95
2022-09-28T22:49:35.839Z,7.96
2022-09-28T22:52:03.654Z,7.93
2022-09-28T22:54:32.810Z,7.92
2022-09-28T22:57:00.532Z,7.90
2022-09-28T22:59:28.234Z,7.87
2022-09-28T23:01:56.042Z,7.84
2022-09-28T23:04:23.750Z,7.81
2022-09-28T23:06:51.455Z,7.79
2022-09-28T23:09:19.266Z,7.75
2022-09-28T23:11:48.355Z,7.73
2022-09-28T23:14:16.295Z,7.70
2022-09-28T23:16:44.524Z,7.67
2022-09-28T23:19:12.336Z,7.66
2022-09-28T23:21:40.027Z,7.64
2022-09-28T23:24:07.908Z,7.62
2022-09-28T23:26:36.920Z,7.63
2022-09-28T23:29:06.008Z,7.62
2022-09-28T23:31:34.279Z,7.61
2022-09-28T23:34:04.676Z,7.61
2022-09-28T23:36:33.187Z,7.59
2022-09-28T23:39:01.048Z,7.58
2022-09-28T23:41:29.104Z,7.55
2022-09-28T23:43:56.900Z,7.52
2022-09-28T23:46:25.971Z,7.50
2022-09-28T23:48:53.811Z,7.47
2022-09-28T23:51:21.736Z,7.43
2022-09-28T23:53:49.532Z,7.36
2022-09-28T23:56:17.284Z,7.35
2022-09-28T23:58:45.017Z,7.34
